• Join FlightAware (Why Join?)
  • Login
  • US Flag 
05:12PM EDT


 

Airport Tracker/Info


-or-


 

Live Flight TrackerFlight Track Log ✈ QXE2086 ✈ 15-Feb-2014 ✈ KSEA - KALW

Flight Track Log - Related Links

Times and Time Zones

All times are in EST time to prevent confusion due to time zone crossing. See the QXE2086 flight status page for this flight to view local times or setup timezone preferences in your user account.

Time Position Orientation Groundspeed Altitude Reporting Facility
EST Latitude Longitude Course Direction KTS MPH feet Rate Location/Type
10:49PM 47.2551 -121.6936 106° East  Level Estimated
10:50PM 47.2224 -121.5911 110° East  Level Estimated
10:51PM 47.1895 -121.4886 110° East  Level Estimated
10:52PM 47.1953 -121.3757 86° East  Level FlightAware Approximate
10:53PM 47.1611 -121.2742 102° East  Level Estimated
10:54PM 47.1269 -121.1728 109° East  Level Estimated
10:55PM 47.1230 -121.0599 93° East  Level FlightAware Approximate
10:56PM 47.1190 -120.9469 93° East  Level FlightAware Approximate
10:57PM 47.1061 -120.8370 109° East  Level FlightAware Approximate
10:58PM 47.0820 -120.7319 109° East  Level FlightAware Approximate
10:59PM 47.0577 -120.6266 109° East  Level FlightAware Approximate
11:00PM 47.0333 -120.5214 109° East  Level FlightAware Approximate
11:01PM 47.0161 -120.4143 109° East  Level FlightAware Approximate
11:02PM 46.9910 -120.3095 109° East  Level FlightAware Approximate
11:03PM 46.9657 -120.2049 109° East  Level FlightAware Approximate
11:04PM 46.9404 -120.1003 110° East  Level FlightAware Approximate
11:05PM 46.9149 -119.9958 110° East  Level FlightAware Approximate
11:06PM 46.8889 -119.8892 110° East  Level FlightAware Approximate
11:07PM 46.8589 -119.7848 114° Southeast  Level FlightAware Approximate
11:08PM 46.8279 -119.6812 114° Southeast  Level FlightAware Approximate
11:09PM 46.7965 -119.5769 114° Southeast  Level FlightAware Approximate
11:10PM 46.7635 -119.4738 116° Southeast  Level FlightAware Approximate
11:11PM 46.7291 -119.3717 118° Southeast  Level FlightAware Approximate
11:12PM 46.6967 -119.2825 118° Southeast  Level FlightAware Approximate
11:13PM 46.6644 -119.1932 116° Southeast  Level FlightAware Approximate
11:14PM 46.6342 -119.1023 116° Southeast  Level FlightAware Approximate
11:15PM 46.6039 -119.0116 116° Southeast  Level FlightAware Approximate
11:16PM 46.5872 -118.9617 116° Southeast  Level FlightAware Approximate
11:17PM 46.5734 -118.9100 110° East  Level FlightAware Approximate
11:18PM 46.5603 -118.8579 110° East  Level FlightAware Approximate
11:19PM 46.5420 -118.8167 180° South  Level FlightAware Approximate
11:20PM 46.5213 -118.7775 114° Southeast  Level FlightAware Approximate
11:21PM 46.5058 -118.7269 114° Southeast  Level FlightAware Approximate
11:22PM 46.4902 -118.6763 114° Southeast  Level FlightAware Approximate
11:23PM 46.4746 -118.6257 114° Southeast  Level FlightAware Approximate
11:24PM 46.4581 -118.5758 117° Southeast  Level FlightAware Approximate
11:25PM 46.4408 -118.5264 117° Southeast  Level FlightAware Approximate
11:26PM 46.4234 -118.4771 117° Southeast  Level FlightAware Approximate
11:27PM 46.4060 -118.4279 117° Southeast  Level FlightAware Approximate
11:28PM 46.3886 -118.3786 117° Southeast  Level FlightAware Approximate
11:29PM 46.3712 -118.3295 117° Southeast  Level FlightAware Approximate
11:30PM 46.3394 -118.2257 113° Southeast  Level FlightAware Approximate
11:31PM 46.2956 -118.1522 199° South  Level FlightAware Approximate
11:32PM 46.2699 -118.2356 274° West  Level FlightAware Approximate
11:33PM 46.2751 -118.3487 274° West  Level FlightAware Approximate
11:34PM 46.2802 -118.4619 274° West  Level FlightAware Approximate
11:35PM 46.2470 -118.3602 115° Southeast  Level FlightAware Approximate
11:36PM 46.2138 -118.2587 115° Southeast  Level FlightAware Approximate
11:37PM 46.1805 -118.1573 115° Southeast  Level FlightAware Approximate
11:38PM 46.1267 -118.2401 308° West  Level Estimated
11:39PM 46.0948 -118.2890 325° Northwest  Level Estimated
11:40PM 46.0948 -118.2890 151° Southeast  Level Estimated
11:41PM 46.0948 -118.2890 35° Northeast  Level Estimated
11:42PM 46.0948 -118.2890 199° South  Level Estimated
11:43PM 46.0948 -118.2890 199° South  Level Estimated
11:44PM 46.0948 -118.2890 210° Southwest  Level Estimated
11:45PM 46.0948 -118.2890 210° Southwest  Level Estimated
11:46PM 46.0948 -118.2890 210° Southwest  Level Estimated
11:47PM 46.0948 -118.2890 153° Southeast  Level Estimated
11:48PM 46.0948 -118.2890 153° Southeast  Level Estimated
11:49PM 46.0948 -118.2890 153° Southeast  Level Estimated
11:50PM 46.0948 -118.2890 153° Southeast  Level Estimated
11:51PM 46.0948 -118.2890 199° South  Level Estimated
11:52PM 46.1330 -118.3945 298° West  Level Estimated
11:53PM 46.1712 -118.5001 298° West  Level Estimated
11:54PM 46.2092 -118.6059 297° West  Level Estimated
11:55PM 46.2472 -118.7119 297° West  Level Estimated
11:56PM 46.2850 -118.8179 297° West  Level Estimated
11:57PM 46.3353 -118.9593 297° West  Level Estimated
11:58PM 46.3853 -119.1009 297° West  Level Estimated
11:59PM 46.4352 -119.2428 297° West  Level Estimated
12:00AM 46.4856 -119.3871 297° West  Level Estimated
12:01AM 46.5358 -119.5316 297° West  Level Estimated
12:02AM 46.5859 -119.6764 297° West  Level Estimated
12:03AM 46.6358 -119.8215 297° West  Level Estimated
12:04AM 46.6855 -119.9668 297° West  Level Estimated
12:05AM 46.7350 -120.1124 296° West  Level Estimated
12:06AM 46.7843 -120.2583 296° West  Level Estimated
12:07AM 46.8335 -120.4047 296° West  Level Estimated
12:08AM 46.8826 -120.5514 296° West  Level Estimated
12:09AM 46.9314 -120.6983 296° West  Level Estimated
12:10AM 46.9814 -120.8496 296° West  Level Estimated
12:11AM 47.0313 -121.0012 296° West  Level Estimated
12:12AM 47.0809 -121.1531 296° West  Level Estimated
12:13AM 47.1303 -121.3052 296° West  Level Estimated
12:14AM 47.1213 -121.1356 94° East  Level FlightAware Approximate
12:15AM 47.1661 -121.2926 109° East  Level Estimated
12:16AM 47.1306 -121.1305 108° East  Level FlightAware Approximate
12:17AM 47.1742 -121.2882 115° Southeast  Level Estimated
12:18AM 47.1324 -121.1295 111° Southeast  Level FlightAware Approximate
12:19AM 47.1757 -121.2874 111° Southeast  Level Estimated
12:20AM 47.1340 -121.1286 111° Southeast  Level FlightAware Approximate
12:21AM 47.0921 -120.9700 111° Southeast  Level FlightAware Approximate
12:22AM 47.0500 -120.8117 111° Southeast  Level FlightAware Approximate
12:23AM 47.0076 -120.6536 111° Southeast  Level FlightAware Approximate
12:24AM 46.9651 -120.4958 112° Southeast  Level FlightAware Approximate
12:25AM 46.9223 -120.3383 112° Southeast  Level FlightAware Approximate
12:26AM 46.9659 -120.4953 113° Southeast  Level Estimated
12:27AM 46.9225 -120.3381 112° Southeast  Level FlightAware Approximate
12:28AM 46.8789 -120.1812 112° Southeast  Level FlightAware Approximate
12:29AM 46.8351 -120.0245 112° Southeast  Level FlightAware Approximate
12:30AM 46.8791 -120.1811 112° Southeast  Level Estimated
12:31AM 46.8357 -120.0242 112° Southeast  Level FlightAware Approximate
12:32AM 46.7921 -119.8675 112° Southeast  Level FlightAware Approximate
12:33AM 46.8362 -120.0239 308° West  Level Estimated
12:34AM 46.8019 -119.8623 107° East  Level FlightAware Approximate
12:35AM 46.7673 -119.7010 107° East  Level FlightAware Approximate
12:36AM 46.8099 -119.8555 116° Southeast  Level Estimated
12:37AM 46.7702 -119.6993 110° East  Level FlightAware Approximate
12:38AM 46.7304 -119.5434 110° East  Level FlightAware Approximate
12:39AM 46.6903 -119.3877 111° Southeast  Level FlightAware Approximate
12:40AM 46.7324 -119.5408 292° West  Level Estimated
12:41AM 46.7744 -119.6941 292° West  Level Estimated
12:42AM 46.8162 -119.8477 292° West  Level Estimated
12:43AM 46.8577 -120.0015 292° West  Level Estimated
12:44AM 46.8991 -120.1556 291° West  Level Estimated
12:45AM 46.9402 -120.3099 291° West  Level Estimated
12:46AM 46.9812 -120.4644 291° West  Level Estimated
12:47AM 47.0189 -120.6077 291° West  Level Estimated
12:48AM 47.0564 -120.7512 291° West  Level Estimated
12:49AM 47.0938 -120.8948 291° West  Level Estimated
12:50AM 47.1310 -121.0387 291° West  Level Estimated
12:51AM 47.1680 -121.1828 291° West  Level Estimated
12:52AM 47.2048 -121.3270 291° West  Level Estimated
12:53AM 47.2414 -121.4715 291° West  Level Estimated
12:54AM 47.2779 -121.6162 290° West  Level Estimated
12:55AM 47.3141 -121.7610 290° West  Level Estimated
12:56AM 47.3502 -121.9061 290° West  Level Estimated
12:57AM 47.3861 -122.0514 290° West  Level Estimated
12:58AM 47.4218 -122.1968 290° West  Level Estimated
12:59AM 47.4499 -122.3118 290° West  Level Estimated
01:00AM 47.4499 -122.3118 126° Southeast  Level Estimated
01:01AM 47.4499 -122.3118 126° Southeast  Level Estimated
01:02AM 47.4499 -122.3118 126° Southeast  Level Estimated
01:03AM 47.4499 -122.3118 126° Southeast  Level Estimated
01:04AM 47.4499 -122.3118 126° Southeast  Level Estimated
01:05AM 47.4499 -122.3118 126° Southeast  Level Estimated
01:06AM 47.4499 -122.3118 126° Southeast  Level Estimated